Time;durP1;ratioP1;P1;durP2;ratioP2;P2;SDS_P1;SDS_P2;PMS_P1;PMS_P2;Temp;Humidity;BMP_temperature;BMP_pressure;BME280_temperature;BME280_humidity;BME280_pressure;Samples;Min_cycle;Max_cycle;Signal;HPM_P1;HPM_P2
2021/11/20 00:00:41;;;;;;;16.40;10.23;;;2.20;99.90;;;;;;5013935;28;20642;-75
2021/11/20 00:03:08;;;;;;;12.47;10.40;;;2.30;99.90;;;;;;4979802;28;20199;-75
2021/11/20 00:05:37;;;;;;;19.20;12.03;;;2.40;99.90;;;;;;4977528;28;20179;-75
2021/11/20 00:08:05;;;;;;;10.93;9.83;;;2.50;99.90;;;;;;4977289;28;20633;-75
2021/11/20 00:10:33;;;;;;;14.30;9.33;;;2.50;99.90;;;;;;4994872;28;20168;-75
2021/11/20 00:12:59;;;;;;;14.90;10.47;;;2.60;99.90;;;;;;4994881;28;20250;-76
2021/11/20 00:15:29;;;;;;;13.90;9.47;;;2.60;99.90;;;;;;4994857;28;20175;-76
2021/11/20 00:17:56;;;;;;;16.73;10.27;;;2.50;99.90;;;;;;4994073;28;20184;-75
2021/11/20 00:20:25;;;;;;;18.20;10.27;;;2.50;99.90;;;;;;4977225;28;20207;-76
2021/11/20 00:22:52;;;;;;;14.43;9.90;;;2.40;99.90;;;;;;4983654;28;20631;-75
2021/11/20 00:25:26;;;;;;;26.33;9.73;;;2.30;99.90;;;;;;5014164;28;20198;-74
2021/11/20 00:27:54;;;;;;;24.63;9.90;;;2.30;99.90;;;;;;5014379;28;20515;-77
2021/11/20 00:30:24;;;;;;;11.53;9.10;;;2.30;99.90;;;;;;5014162;28;20218;-76
2021/11/20 00:32:58;;;;;;;32.77;10.67;;;2.20;99.90;;;;;;5013422;28;20195;-76
2021/11/20 00:35:28;;;;;;;21.07;8.83;;;2.30;99.90;;;;;;5012182;28;20225;-75
2021/11/20 00:37:53;;;;;;;36.37;9.90;;;2.10;99.90;;;;;;4996923;28;20313;-76
2021/11/20 00:40:29;;;;;;;14.67;8.73;;;2.30;99.90;;;;;;5014027;28;20183;-75
2021/11/20 00:42:55;;;;;;;14.33;9.47;;;2.10;99.90;;;;;;5013875;28;20199;-75
2021/11/20 00:45:21;;;;;;;23.90;11.90;;;2.20;99.90;;;;;;5014078;28;20167;-76
2021/11/20 00:47:47;;;;;;;33.80;9.93;;;2.10;99.90;;;;;;5013869;28;20184;-76
2021/11/20 00:50:14;;;;;;;31.73;15.87;;;2.10;99.90;;;;;;5013865;28;20178;-76
2021/11/20 00:52:41;;;;;;;26.90;19.53;;;2.10;99.90;;;;;;5013508;28;20241;-77
2021/11/20 00:55:07;;;;;;;12.43;10.40;;;2.20;99.90;;;;;;5013924;28;20186;-76
2021/11/20 00:57:33;;;;;;;16.13;10.30;;;2.30;99.90;;;;;;4996037;28;20203;-76
2021/11/20 00:59:59;;;;;;;15.57;11.80;;;2.40;99.90;;;;;;4996038;28;20548;-76
2021/11/20 01:02:25;;;;;;;16.37;11.40;;;2.50;99.90;;;;;;5013790;28;20196;-76
2021/11/20 01:04:50;;;;;;;30.50;10.47;;;2.60;99.90;;;;;;5013603;28;20532;-76
2021/11/20 01:07:16;;;;;;;23.23;10.57;;;2.40;99.90;;;;;;5013635;28;20254;-76
2021/11/20 01:09:45;;;;;;;13.63;9.50;;;2.70;99.90;;;;;;5013499;28;20183;-77
2021/11/20 01:12:22;;;;;;;13.67;10.00;;;2.50;99.90;;;;;;4995908;28;20258;-76
2021/11/20 01:14:49;;;;;;;15.03;10.33;;;2.50;99.90;;;;;;4995916;28;20187;-76
2021/11/20 01:17:16;;;;;;;28.30;10.93;;;2.50;99.90;;;;;;5013397;28;20732;-76
2021/11/20 01:19:43;;;;;;;13.50;9.77;;;2.40;99.90;;;;;;5013520;28;20174;-76
2021/11/20 01:22:13;;;;;;;14.53;9.43;;;2.40;99.90;;;;;;5013258;28;20635;-77
2021/11/20 01:24:39;;;;;;;51.30;11.37;;;2.50;99.90;;;;;;5013445;28;20203;-76
2021/11/20 01:27:05;;;;;;;37.67;11.10;;;2.50;99.90;;;;;;4995653;28;20215;-76
2021/11/20 01:29:31;;;;;;;34.03;11.93;;;2.40;99.90;;;;;;5018266;28;20221;-76
2021/11/20 01:31:57;;;;;;;16.43;10.13;;;2.30;99.90;;;;;;5019771;28;20210;-76
2021/11/20 01:34:24;;;;;;;16.80;10.90;;;2.30;99.90;;;;;;5019846;28;20270;-76
2021/11/20 01:36:53;;;;;;;21.40;11.20;;;2.40;99.90;;;;;;5019702;28;20684;-76
2021/11/20 01:39:27;;;;;;;14.10;10.20;;;2.30;99.90;;;;;;5019779;28;20194;-76
2021/11/20 01:42:01;;;;;;;14.10;11.07;;;2.40;99.90;;;;;;5002135;28;20256;-76
2021/11/20 01:44:41;;;;;;;15.77;11.63;;;2.30;99.90;;;;;;5019795;28;20199;-76
2021/11/20 01:47:17;;;;;;;18.33;11.70;;;2.20;99.90;;;;;;5020066;28;20186;-75
2021/11/20 01:49:47;;;;;;;22.27;12.30;;;2.30;99.90;;;;;;5019708;28;20174;-75
2021/11/20 01:52:25;;;;;;;29.10;12.83;;;2.30;99.90;;;;;;5003643;28;20218;-76
2021/11/20 01:54:58;;;;;;;37.47;12.83;;;2.40;99.90;;;;;;5019659;28;20657;-75
2021/11/20 01:57:29;;;;;;;35.27;13.27;;;2.50;99.90;;;;;;5016446;28;20199;-75
2021/11/20 02:00:13;;;;;;;24.33;12.80;;;2.30;99.90;;;;;;5000763;28;20176;-76
2021/11/20 02:02:38;;;;;;;21.60;12.47;;;2.20;99.90;;;;;;4999909;28;20227;-76
2021/11/20 02:05:20;;;;;;;22.57;12.30;;;2.20;99.90;;;;;;4999910;28;20255;-76
2021/11/20 02:07:52;;;;;;;23.20;11.97;;;2.20;99.90;;;;;;4999940;28;20215;-76
2021/11/20 02:10:27;;;;;;;18.87;11.87;;;2.30;99.90;;;;;;4999989;28;20176;-75
2021/11/20 02:13:07;;;;;;;22.60;12.13;;;2.20;99.90;;;;;;4999987;28;20199;-75
2021/11/20 02:15:47;;;;;;;18.03;11.80;;;2.20;99.90;;;;;;5007682;28;20171;-75
2021/11/20 02:18:15;;;;;;;21.37;12.57;;;2.10;99.90;;;;;;5001803;28;20310;-76
2021/11/20 02:20:49;;;;;;;14.87;11.43;;;2.10;99.90;;;;;;5019563;28;20190;-75
2021/11/20 02:23:16;;;;;;;19.03;12.20;;;2.10;99.90;;;;;;5019259;28;20249;-76
2021/11/20 02:25:42;;;;;;;18.37;11.93;;;2.10;99.90;;;;;;5019484;28;20175;-77
2021/11/20 02:28:08;;;;;;;16.70;12.10;;;2.00;99.90;;;;;;5019365;28;20234;-76
2021/11/20 02:30:40;;;;;;;19.83;11.87;;;2.10;99.90;;;;;;5001676;28;20181;-75
2021/11/20 02:33:35;;;;;;;15.97;11.67;;;2.10;99.90;;;;;;5019266;28;20194;-75
2021/11/20 02:36:09;;;;;;;15.33;11.87;;;2.10;99.90;;;;;;5014424;28;20222;-75
2021/11/20 02:38:44;;;;;;;18.03;12.60;;;2.20;99.90;;;;;;5009160;28;20252;-76
2021/11/20 02:41:14;;;;;;;19.83;11.57;;;2.20;99.90;;;;;;4996414;28;20263;-75
2021/11/20 02:43:43;;;;;;;16.77;11.87;;;2.20;99.90;;;;;;4996490;28;20230;-75
2021/11/20 02:46:11;;;;;;;17.53;11.67;;;2.30;99.90;;;;;;4996557;28;20540;-75
2021/11/20 02:48:37;;;;;;;14.17;12.00;;;2.20;99.90;;;;;;4996446;28;20553;-75
2021/11/20 02:51:13;;;;;;;15.47;11.20;;;2.20;99.90;;;;;;4978880;28;20179;-75
2021/11/20 02:53:46;;;;;;;13.77;11.80;;;2.20;99.90;;;;;;4996268;28;20215;-75
2021/11/20 02:56:15;;;;;;;12.27;11.00;;;2.20;99.90;;;;;;4978783;28;20286;-75
2021/11/20 02:58:42;;;;;;;16.60;12.47;;;2.20;99.90;;;;;;4978829;28;20211;-75
2021/11/20 03:01:12;;;;;;;14.73;11.73;;;2.10;99.90;;;;;;4996514;28;20180;-77
2021/11/20 03:03:39;;;;;;;13.63;11.33;;;2.00;99.90;;;;;;4996189;28;20192;-77
2021/11/20 03:06:05;;;;;;;12.80;11.37;;;2.10;99.90;;;;;;4996284;28;20319;-75
2021/11/20 03:08:31;;;;;;;11.80;10.60;;;2.20;99.90;;;;;;4979187;28;20272;-77
2021/11/20 03:10:57;;;;;;;12.50;10.40;;;2.20;99.90;;;;;;4996240;28;20195;-77
2021/11/20 03:13:23;;;;;;;10.87;9.77;;;2.10;99.90;;;;;;4995975;28;20196;-77
2021/11/20 03:15:49;;;;;;;12.67;9.70;;;2.10;99.90;;;;;;4995925;28;20204;-76
2021/11/20 03:18:15;;;;;;;10.83;9.83;;;2.20;99.90;;;;;;4978457;28;20186;-77
2021/11/20 03:20:42;;;;;;;10.90;9.80;;;2.10;99.90;;;;;;4978553;28;20303;-74
2021/11/20 03:23:16;;;;;;;11.47;10.23;;;2.10;99.90;;;;;;5004289;28;20195;-76
2021/11/20 03:25:42;;;;;;;11.23;10.03;;;2.10;99.90;;;;;;5015589;28;20174;-77
2021/11/20 03:28:08;;;;;;;10.33;9.30;;;2.10;99.90;;;;;;5013640;28;20620;-77
2021/11/20 03:30:34;;;;;;;10.67;9.57;;;2.10;99.90;;;;;;5012781;28;20180;-77
2021/11/20 03:33:00;;;;;;;13.13;10.07;;;2.10;99.90;;;;;;5002467;28;20740;-76
2021/11/20 03:35:27;;;;;;;14.00;9.90;;;2.10;99.90;;;;;;5010065;28;20179;-77
2021/11/20 03:37:54;;;;;;;11.03;9.80;;;2.10;99.90;;;;;;4993361;28;20206;-75
2021/11/20 03:40:22;;;;;;;12.47;10.67;;;2.10;99.90;;;;;;4977291;28;20176;-74
2021/11/20 03:42:47;;;;;;;12.50;9.93;;;2.00;99.90;;;;;;4995431;28;20270;-75
2021/11/20 03:45:15;;;;;;;11.67;9.73;;;2.10;99.90;;;;;;4995543;28;20271;-76
2021/11/20 03:47:40;;;;;;;10.97;9.50;;;2.10;99.90;;;;;;4976974;28;20188;-76
2021/11/20 03:50:08;;;;;;;13.87;10.40;;;2.10;99.90;;;;;;4978299;28;20576;-76
2021/11/20 03:52:34;;;;;;;11.67;9.23;;;2.10;99.90;;;;;;4977606;28;20251;-76
2021/11/20 03:55:00;;;;;;;10.07;8.80;;;2.20;99.90;;;;;;5013942;28;20593;-76
2021/11/20 03:57:25;;;;;;;9.60;8.60;;;2.20;99.90;;;;;;5014916;28;20282;-76
2021/11/20 03:59:51;;;;;;;10.50;8.47;;;2.20;99.90;;;;;;5014618;28;20183;-76
2021/11/20 04:02:18;;;;;;;11.20;9.03;;;2.20;99.90;;;;;;5014722;28;20276;-76
2021/11/20 04:04:44;;;;;;;11.70;9.70;;;2.20;99.90;;;;;;5014568;28;20229;-77
2021/11/20 04:07:09;;;;;;;11.23;9.20;;;2.10;99.90;;;;;;5014564;28;20195;-76
2021/11/20 04:09:36;;;;;;;12.27;9.47;;;2.30;99.90;;;;;;5014473;28;20180;-77
2021/11/20 04:12:02;;;;;;;12.53;10.10;;;2.20;99.90;;;;;;5015056;28;20603;-76
2021/11/20 04:14:27;;;;;;;11.17;9.27;;;2.20;99.90;;;;;;5014474;28;20314;-76
2021/11/20 04:16:54;;;;;;;10.80;9.07;;;2.20;99.90;;;;;;4996776;28;20211;-76
2021/11/20 04:19:21;;;;;;;10.93;8.50;;;2.30;99.90;;;;;;5014376;28;20179;-76
2021/11/20 04:21:47;;;;;;;11.33;9.03;;;2.40;99.90;;;;;;5014232;28;20191;-77
2021/11/20 04:24:13;;;;;;;10.57;9.23;;;2.40;99.90;;;;;;4996610;28;20646;-76
2021/11/20 04:26:39;;;;;;;10.97;9.53;;;2.40;99.90;;;;;;4999519;28;20543;-77
2021/11/20 04:29:05;;;;;;;11.13;9.83;;;2.50;99.90;;;;;;4994534;28;20173;-74
2021/11/20 04:31:31;;;;;;;12.93;10.27;;;2.50;99.90;;;;;;4994464;28;20203;-74
2021/11/20 04:33:57;;;;;;;12.33;8.80;;;2.40;99.90;;;;;;4994540;28;20231;-75
2021/11/20 04:36:25;;;;;;;11.57;9.80;;;2.50;99.90;;;;;;4994343;28;20250;-75
2021/11/20 04:38:52;;;;;;;13.27;9.20;;;2.50;99.90;;;;;;4994510;28;20180;-75
2021/11/20 04:41:21;;;;;;;12.43;9.50;;;2.60;99.90;;;;;;4994554;28;20655;-74
2021/11/20 04:43:49;;;;;;;13.53;10.10;;;2.70;99.90;;;;;;4994213;28;20755;-75
2021/11/20 04:46:17;;;;;;;12.10;9.23;;;2.60;99.90;;;;;;4996816;28;20266;-75
2021/11/20 04:48:43;;;;;;;13.87;9.73;;;2.60;99.90;;;;;;4976856;28;20194;-75
2021/11/20 04:51:09;;;;;;;16.83;10.67;;;2.60;99.90;;;;;;4994163;28;20265;-75
2021/11/20 04:53:38;;;;;;;12.53;10.23;;;2.70;99.90;;;;;;4994092;28;20225;-76
2021/11/20 04:56:05;;;;;;;13.27;10.00;;;2.60;99.90;;;;;;4994018;28;20209;-76
2021/11/20 04:58:31;;;;;;;13.30;9.07;;;2.50;99.90;;;;;;4994021;28;20604;-75
2021/11/20 05:00:58;;;;;;;14.03;9.93;;;2.60;99.90;;;;;;4982902;28;20177;-76
2021/11/20 05:03:25;;;;;;;16.00;10.17;;;2.60;99.90;;;;;;4993900;28;20203;-75
2021/11/20 05:05:52;;;;;;;13.23;9.70;;;2.80;99.90;;;;;;5013594;28;20192;-75
2021/11/20 05:08:20;;;;;;;13.80;9.57;;;2.40;99.90;;;;;;5008030;28;20180;-76
2021/11/20 05:10:46;;;;;;;15.87;9.10;;;2.20;99.90;;;;;;4992827;28;20176;-76
2021/11/20 05:13:13;;;;;;;16.00;9.67;;;2.20;99.90;;;;;;4993866;28;20235;-75
2021/11/20 05:15:41;;;;;;;13.70;9.20;;;2.20;99.90;;;;;;5005070;28;20282;-75
2021/11/20 05:18:07;;;;;;;17.90;10.20;;;2.50;99.90;;;;;;4982239;28;20214;-76
2021/11/20 05:20:34;;;;;;;13.43;8.87;;;2.40;99.90;;;;;;5013392;28;20187;-75
2021/11/20 05:22:59;;;;;;;13.97;9.77;;;2.40;99.90;;;;;;5013320;28;20202;-75
2021/11/20 05:25:25;;;;;;;15.03;9.77;;;2.30;99.90;;;;;;4995906;28;20268;-77
2021/11/20 05:27:54;;;;;;;15.63;9.80;;;2.30;99.90;;;;;;5013403;28;20187;-75
2021/11/20 05:30:36;;;;;;;13.87;9.50;;;2.40;99.90;;;;;;5013380;28;20581;-75
2021/11/20 05:33:12;;;;;;;14.43;9.27;;;2.40;99.90;;;;;;4995538;28;20195;-75
2021/11/20 05:35:38;;;;;;;19.57;9.93;;;2.40;99.90;;;;;;5013328;28;20183;-75
2021/11/20 05:38:05;;;;;;;12.80;9.13;;;2.40;99.90;;;;;;5013167;28;20190;-75
2021/11/20 05:40:32;;;;;;;15.03;10.27;;;2.40;99.90;;;;;;5013291;28;20188;-75
2021/11/20 05:43:00;;;;;;;17.60;9.53;;;2.30;99.90;;;;;;4995526;28;20218;-75
2021/11/20 05:45:31;;;;;;;17.07;9.60;;;2.40;99.90;;;;;;4995663;28;20270;-75
2021/11/20 05:47:57;;;;;;;16.83;9.60;;;2.40;99.90;;;;;;5013099;28;20182;-75
2021/11/20 05:50:25;;;;;;;18.33;10.60;;;2.50;99.90;;;;;;5013190;28;20179;-75
2021/11/20 05:52:52;;;;;;;15.07;9.67;;;2.60;99.90;;;;;;4995350;28;20212;-75
2021/11/20 05:55:21;;;;;;;18.37;9.77;;;2.70;99.90;;;;;;4995495;28;20180;-75
2021/11/20 05:57:47;;;;;;;15.23;10.03;;;2.70;99.90;;;;;;5009905;28;20200;-75
2021/11/20 06:00:22;;;;;;;14.20;9.43;;;2.80;99.90;;;;;;5013340;28;20634;-75
2021/11/20 06:02:48;;;;;;;14.13;9.07;;;2.80;99.90;;;;;;4995393;28;20205;-75
2021/11/20 06:05:14;;;;;;;14.40;9.13;;;2.80;99.90;;;;;;5013067;28;20655;-75
2021/11/20 06:07:40;;;;;;;14.07;9.13;;;2.70;99.90;;;;;;5013211;28;20213;-75
2021/11/20 06:10:06;;;;;;;15.70;9.47;;;2.60;99.90;;;;;;4995265;28;20267;-76
2021/11/20 06:12:32;;;;;;;13.77;9.23;;;2.60;99.90;;;;;;5013129;28;20250;-75
2021/11/20 06:14:57;;;;;;;15.20;9.70;;;2.50;99.90;;;;;;4995523;28;20191;-76
2021/11/20 06:17:23;;;;;;;16.27;9.87;;;2.40;99.90;;;;;;5016803;28;20203;-75
2021/11/20 06:19:49;;;;;;;14.13;9.53;;;2.30;99.90;;;;;;4998997;28;20218;-75
2021/11/20 06:22:17;;;;;;;16.33;9.53;;;2.30;99.90;;;;;;4998747;28;20278;-75
2021/11/20 06:24:43;;;;;;;14.90;9.33;;;2.30;99.90;;;;;;5016560;28;20227;-75
2021/11/20 06:27:08;;;;;;;15.80;9.53;;;2.40;99.90;;;;;;5016447;28;20192;-75
2021/11/20 06:29:34;;;;;;;18.57;10.50;;;2.40;99.90;;;;;;5016443;28;20188;-75
2021/11/20 06:32:00;;;;;;;17.63;9.57;;;2.40;99.90;;;;;;5016321;28;20200;-75
2021/11/20 06:34:25;;;;;;;21.10;11.83;;;2.30;99.90;;;;;;5016261;28;20528;-75
2021/11/20 06:36:51;;;;;;;17.77;11.13;;;2.30;99.90;;;;;;5016250;28;20204;-75
2021/11/20 06:39:17;;;;;;;15.97;10.50;;;2.20;99.90;;;;;;5016162;28;20168;-76
2021/11/20 06:41:43;;;;;;;17.27;11.07;;;2.20;99.90;;;;;;5016223;28;20171;-75
2021/11/20 06:44:09;;;;;;;20.07;10.73;;;2.30;99.90;;;;;;5016109;28;20174;-76
2021/11/20 06:46:35;;;;;;;22.03;11.77;;;2.40;99.90;;;;;;5016071;28;20180;-75
2021/11/20 06:49:02;;;;;;;23.10;11.97;;;2.40;99.90;;;;;;5016122;28;20183;-75
2021/11/20 06:51:28;;;;;;;15.30;10.53;;;2.40;99.90;;;;;;4994996;28;20175;-75
2021/11/20 06:53:54;;;;;;;22.97;12.13;;;2.40;99.90;;;;;;4987046;28;20214;-76
2021/11/20 06:56:30;;;;;;;19.03;11.47;;;2.40;99.90;;;;;;4978709;28;20671;-75
2021/11/20 06:59:19;;;;;;;23.40;12.57;;;2.50;99.90;;;;;;4996629;28;20203;-75
2021/11/20 07:01:46;;;;;;;19.27;11.40;;;2.40;99.90;;;;;;4996317;28;20283;-75
2021/11/20 07:04:18;;;;;;;21.40;13.40;;;2.40;99.90;;;;;;4996206;28;20200;-76
2021/11/20 07:06:57;;;;;;;21.53;13.17;;;2.40;99.90;;;;;;4996061;28;20180;-75
2021/11/20 07:09:24;;;;;;;22.03;12.03;;;2.60;99.90;;;;;;5004050;28;20183;-75
2021/11/20 07:11:50;;;;;;;19.90;12.23;;;2.70;99.90;;;;;;5015600;28;20192;-75
2021/11/20 07:14:16;;;;;;;18.63;11.90;;;2.70;99.90;;;;;;5015818;28;20269;-75
2021/11/20 07:16:43;;;;;;;21.57;12.47;;;2.70;99.90;;;;;;5015487;28;20721;-75
2021/11/20 07:19:10;;;;;;;21.63;12.97;;;2.70;99.90;;;;;;5015452;28;20167;-75
2021/11/20 07:21:36;;;;;;;30.40;15.67;;;2.60;99.90;;;;;;5015317;28;20179;-75
2021/11/20 07:24:09;;;;;;;28.90;15.83;;;2.70;99.90;;;;;;5015352;28;20704;-75
2021/11/20 07:26:36;;;;;;;23.10;13.37;;;2.80;99.90;;;;;;5015188;28;20728;-75
2021/11/20 07:29:03;;;;;;;20.50;12.70;;;2.70;99.90;;;;;;5015323;28;20195;-75
2021/11/20 07:31:28;;;;;;;22.37;13.87;;;2.70;99.90;;;;;;4997693;28;20560;-75
2021/11/20 07:33:54;;;;;;;48.07;28.77;;;2.80;99.90;;;;;;4997502;28;20185;-75
2021/11/20 07:36:20;;;;;;;25.43;16.63;;;2.80;99.90;;;;;;4997586;28;20220;-75
2021/11/20 07:38:55;;;;;;;21.20;15.63;;;2.90;99.90;;;;;;5015049;28;20171;-75
2021/11/20 07:41:21;;;;;;;19.20;14.50;;;2.90;99.90;;;;;;5015330;28;20539;-76
2021/11/20 07:43:47;;;;;;;19.50;13.13;;;3.00;99.90;;;;;;5015042;28;20264;-76
2021/11/20 07:46:13;;;;;;;22.53;12.97;;;3.00;99.90;;;;;;5015202;28;20646;-75
2021/11/20 07:48:39;;;;;;;19.87;12.47;;;3.10;99.90;;;;;;5014996;28;20294;-75
2021/11/20 07:51:07;;;;;;;20.30;12.47;;;3.10;99.90;;;;;;4997254;28;20262;-75
2021/11/20 07:53:34;;;;;;;22.50;13.27;;;3.10;99.90;;;;;;4997008;28;20222;-76
2021/11/20 07:56:00;;;;;;;19.10;12.73;;;3.10;99.90;;;;;;5011743;28;20550;-75
2021/11/20 07:58:27;;;;;;;16.67;11.77;;;3.00;99.90;;;;;;4991738;28;20274;-76
2021/11/20 08:00:54;;;;;;;19.23;12.03;;;2.90;99.90;;;;;;4981878;28;20525;-75
2021/11/20 08:03:21;;;;;;;18.60;12.03;;;2.90;99.90;;;;;;5011134;28;20343;-75
2021/11/20 08:05:48;;;;;;;21.33;14.00;;;3.00;99.90;;;;;;5003202;28;20183;-75
2021/11/20 08:08:13;;;;;;;22.10;13.47;;;3.10;99.90;;;;;;4994954;28;20179;-75
2021/11/20 08:10:39;;;;;;;27.63;14.80;;;3.20;99.90;;;;;;5013384;28;20176;-75
2021/11/20 08:13:06;;;;;;;24.30;14.57;;;3.10;99.90;;;;;;5014337;28;20206;-75
2021/11/20 08:15:32;;;;;;;24.07;14.33;;;3.00;99.90;;;;;;5014475;28;20250;-75
2021/11/20 08:17:58;;;;;;;27.13;14.47;;;2.80;99.90;;;;;;5014237;28;20282;-76
2021/11/20 08:20:27;;;;;;;28.97;17.50;;;2.80;99.90;;;;;;5014413;28;20642;-75
2021/11/20 08:22:53;;;;;;;34.40;16.43;;;2.70;99.90;;;;;;5005769;28;20193;-75
2021/11/20 08:25:22;;;;;;;30.83;16.47;;;2.80;99.90;;;;;;4994645;28;20182;-76
2021/11/20 08:27:49;;;;;;;24.27;13.97;;;2.70;99.90;;;;;;4994885;28;20544;-74
2021/11/20 08:30:18;;;;;;;24.57;14.33;;;2.80;99.90;;;;;;4994642;28;20184;-75
2021/11/20 08:32:46;;;;;;;22.30;14.17;;;2.80;99.90;;;;;;4994371;28;20216;-74
2021/11/20 08:35:12;;;;;;;22.30;13.43;;;2.80;99.90;;;;;;4976976;28;20562;-75
2021/11/20 08:37:38;;;;;;;27.83;14.23;;;2.80;99.90;;;;;;4976366;28;20191;-75
2021/11/20 08:40:06;;;;;;;22.40;13.90;;;2.90;99.90;;;;;;4976747;28;20176;-75
2021/11/20 08:42:35;;;;;;;20.23;13.17;;;2.80;99.90;;;;;;4994540;28;20730;-75
2021/11/20 08:45:02;;;;;;;22.77;13.53;;;2.90;99.90;;;;;;4994630;28;20171;-75
2021/11/20 08:47:28;;;;;;;67.50;33.57;;;3.00;99.90;;;;;;4994528;28;20189;-74
2021/11/20 08:49:53;;;;;;;25.90;14.73;;;2.90;99.90;;;;;;4994348;28;20189;-75
2021/11/20 08:52:19;;;;;;;24.20;15.10;;;2.90;99.90;;;;;;4976608;28;20225;-75
2021/11/20 08:54:45;;;;;;;29.67;16.73;;;3.00;99.90;;;;;;4994072;28;20175;-75
2021/11/20 08:57:10;;;;;;;22.27;12.97;;;3.10;99.90;;;;;;4994101;28;20196;-74
2021/11/20 08:59:38;;;;;;;21.33;12.97;;;3.00;99.90;;;;;;4976674;28;20179;-75
2021/11/20 09:02:22;;;;;;;21.47;13.63;;;3.00;99.90;;;;;;4994043;28;20412;-75
2021/11/20 09:04:58;;;;;;;22.43;13.00;;;3.10;99.90;;;;;;4994289;28;20255;-75
2021/11/20 09:07:43;;;;;;;21.87;13.70;;;3.00;99.90;;;;;;4976581;28;20583;-75
2021/11/20 09:10:27;;;;;;;20.50;13.10;;;3.00;99.90;;;;;;5008019;28;20167;-75
2021/11/20 09:12:55;;;;;;;35.33;25.00;;;3.10;99.90;;;;;;5013428;28;20200;-76
2021/11/20 09:15:21;;;;;;;27.10;19.27;;;3.10;99.90;;;;;;4990925;28;20177;-74
2021/11/20 09:17:49;;;;;;;29.40;19.13;;;3.10;99.90;;;;;;4993794;28;20271;-76
2021/11/20 09:20:18;;;;;;;18.40;13.33;;;3.40;99.90;;;;;;4993716;28;20538;-75
2021/11/20 09:22:43;;;;;;;16.30;11.43;;;3.10;99.90;;;;;;4976314;28;20200;-74
2021/11/20 09:25:10;;;;;;;16.40;12.13;;;3.10;99.90;;;;;;4994216;28;20181;-75
2021/11/20 09:27:36;;;;;;;17.83;13.20;;;3.20;99.90;;;;;;4993654;28;20172;-74
2021/11/20 09:30:08;;;;;;;22.53;13.53;;;3.20;99.90;;;;;;4976120;28;20207;-75
2021/11/20 09:32:34;;;;;;;32.27;21.37;;;3.10;99.90;;;;;;4993595;28;20203;-74
2021/11/20 09:35:00;;;;;;;64.17;40.33;;;3.10;99.90;;;;;;4993703;28;20190;-75
2021/11/20 09:37:25;;;;;;;73.97;44.20;;;3.00;99.90;;;;;;4976236;28;20207;-75
2021/11/20 09:39:51;;;;;;;18.17;13.50;;;3.10;99.90;;;;;;4993718;28;20170;-75
2021/11/20 09:42:55;;;;;;;15.03;11.57;;;3.10;99.90;;;;;;4976595;28;20200;-76
2021/11/20 09:45:27;;;;;;;16.03;11.77;;;3.20;99.90;;;;;;4963679;28;20187;-76
2021/11/20 09:47:57;;;;;;;17.07;12.80;;;3.20;99.90;;;;;;4976133;28;20180;-74
2021/11/20 09:50:42;;;;;;;20.30;13.70;;;3.30;99.90;;;;;;4996249;28;20605;-74
2021/11/20 09:53:09;;;;;;;20.90;14.33;;;3.30;99.90;;;;;;4980306;28;20304;-77
2021/11/20 09:55:42;;;;;;;20.20;14.93;;;3.30;99.90;;;;;;5013660;28;20219;-76
2021/11/20 09:58:23;;;;;;;23.07;14.83;;;3.40;99.90;;;;;;4999445;28;20196;-76
2021/11/20 10:01:14;;;;;;;23.67;13.97;;;3.40;99.90;;;;;;5017200;28;20180;-76
2021/11/20 10:03:46;;;;;;;19.20;13.30;;;3.30;99.90;;;;;;5016982;28;20195;-76
2021/11/20 10:06:20;;;;;;;22.47;15.03;;;3.30;99.90;;;;;;4999243;28;20615;-76
2021/11/20 10:08:48;;;;;;;23.70;15.27;;;3.30;99.90;;;;;;4999228;28;20179;-75
2021/11/20 10:11:35;;;;;;;23.00;15.70;;;3.20;99.90;;;;;;5016698;28;20190;-77
2021/11/20 10:14:14;;;;;;;26.13;16.67;;;3.20;99.90;;;;;;5016835;28;20179;-76
2021/11/20 10:16:47;;;;;;;20.17;14.27;;;3.30;99.90;;;;;;5016656;28;20661;-76
2021/11/20 10:19:24;;;;;;;27.17;14.73;;;3.40;99.90;;;;;;4999166;28;20171;-75
2021/11/20 10:22:04;;;;;;;24.07;14.20;;;3.60;99.90;;;;;;4998997;28;20183;-76
2021/11/20 10:24:32;;;;;;;23.37;14.13;;;3.60;99.90;;;;;;5016982;28;20178;-76
2021/11/20 10:27:22;;;;;;;29.20;16.30;;;3.70;99.90;;;;;;4998908;28;20186;-77
2021/11/20 10:30:22;;;;;;;26.70;16.97;;;3.60;99.90;;;;;;4998849;28;20186;-76
2021/11/20 10:32:58;;;;;;;26.47;15.50;;;3.50;99.90;;;;;;4998764;28;20191;-76
2021/11/20 10:35:45;;;;;;;33.83;15.27;;;3.60;99.90;;;;;;5016405;28;20186;-76
2021/11/20 10:38:19;;;;;;;22.43;15.53;;;3.70;99.90;;;;;;5016354;28;20203;-76
2021/11/20 10:40:56;;;;;;;29.03;15.87;;;3.70;99.90;;;;;;5016198;28;20189;-75
2021/11/20 10:43:47;;;;;;;27.83;16.57;;;3.70;99.90;;;;;;5016234;28;20249;-75
2021/11/20 10:46:24;;;;;;;26.07;17.83;;;3.70;99.90;;;;;;5016139;28;20184;-75
2021/11/20 10:49:13;;;;;;;29.13;18.47;;;3.70;99.90;;;;;;4998850;28;20649;-76
2021/11/20 10:52:26;;;;;;;27.83;19.37;;;3.80;99.90;;;;;;5016051;28;20185;-75
2021/11/20 10:55:29;;;;;;;31.43;20.23;;;3.60;99.90;;;;;;4945900;28;20201;-75
2021/11/20 10:58:15;;;;;;;33.67;19.37;;;3.50;99.90;;;;;;4998134;28;20574;-76
2021/11/20 11:01:23;;;;;;;30.90;18.17;;;3.50;99.90;;;;;;4997840;28;20188;-76
2021/11/20 11:04:07;;;;;;;31.10;18.40;;;3.50;99.90;;;;;;4913518;28;20236;-75
2021/11/20 11:06:49;;;;;;;33.50;19.90;;;3.40;99.90;;;;;;4998005;28;20647;-76
2021/11/20 11:09:20;;;;;;;32.00;19.83;;;3.40;99.90;;;;;;5002888;28;20540;-76
2021/11/20 11:11:59;;;;;;;34.50;21.80;;;3.40;99.90;;;;;;5015584;28;20698;-76
2021/11/20 11:14:49;;;;;;;37.97;20.53;;;3.40;99.90;;;;;;5015798;28;20723;-76
2021/11/20 11:17:46;;;;;;;35.50;21.60;;;3.30;99.90;;;;;;5015562;28;20278;-75
2021/11/20 11:20:11;;;;;;;43.67;25.50;;;3.30;99.90;;;;;;5015714;28;20171;-76
2021/11/20 11:23:11;;;;;;;41.60;25.27;;;3.30;99.90;;;;;;4997768;28;20237;-76
2021/11/20 11:25:55;;;;;;;45.60;25.57;;;3.30;99.90;;;;;;5015415;28;20225;-76
2021/11/20 11:28:45;;;;;;;45.60;27.43;;;3.30;99.90;;;;;;5015522;28;20187;-76
2021/11/20 11:31:29;;;;;;;43.57;25.87;;;3.40;99.90;;;;;;5015378;28;20172;-76
2021/11/20 11:34:03;;;;;;;48.20;26.27;;;3.40;99.90;;;;;;4997630;28;20733;-76
2021/11/20 11:36:53;;;;;;;47.83;26.90;;;3.30;99.90;;;;;;5015323;28;20203;-76
2021/11/20 11:39:34;;;;;;;38.87;24.60;;;3.30;99.90;;;;;;4997530;28;20201;-76
2021/11/20 11:42:21;;;;;;;37.33;22.47;;;3.40;99.90;;;;;;5015204;28;20248;-76
2021/11/20 11:45:25;;;;;;;42.50;25.83;;;3.40;99.90;;;;;;5015169;28;20159;-76
2021/11/20 11:48:25;;;;;;;52.33;29.57;;;3.40;99.90;;;;;;4997427;28;20186;-75
2021/11/20 11:51:22;;;;;;;47.80;27.67;;;3.40;99.90;;;;;;4969532;28;20195;-76
2021/11/20 11:54:19;;;;;;;46.30;26.30;;;3.50;99.90;;;;;;4997556;28;20314;-76
2021/11/20 11:57:02;;;;;;;45.80;27.03;;;3.60;99.90;;;;;;4994028;28;20249;-76
2021/11/20 11:59:52;;;;;;;43.67;26.20;;;3.60;99.90;;;;;;4981822;28;20323;-75
2021/11/20 12:02:22;;;;;;;42.83;25.40;;;3.60;99.90;;;;;;4996443;28;20203;-77
2021/11/20 12:04:50;;;;;;;45.77;26.10;;;3.60;99.90;;;;;;5012967;28;20636;-76
2021/11/20 12:07:27;;;;;;;44.07;26.47;;;3.60;99.90;;;;;;5015908;28;20190;-76
2021/11/20 12:10:16;;;;;;;42.70;25.53;;;3.70;99.90;;;;;;5014530;28;20190;-76
2021/11/20 12:13:11;;;;;;;37.63;24.17;;;3.60;99.90;;;;;;5014498;28;20542;-76
2021/11/20 12:16:03;;;;;;;41.27;26.37;;;3.70;99.90;;;;;;5014560;28;20180;-76
2021/11/20 12:18:39;;;;;;;51.00;27.97;;;3.80;99.90;;;;;;5014447;28;20180;-75
2021/11/20 12:21:18;;;;;;;43.97;26.90;;;3.80;99.90;;;;;;4996904;28;20176;-76
2021/11/20 12:23:52;;;;;;;43.67;27.53;;;3.80;99.90;;;;;;4996635;28;20286;-76
2021/11/20 12:26:59;;;;;;;40.37;26.67;;;3.80;99.90;;;;;;5014497;28;20186;-76
2021/11/20 12:30:06;;;;;;;45.90;27.27;;;3.80;99.90;;;;;;4899933;29;20183;-76
2021/11/20 12:33:00;;;;;;;35.30;23.43;;;3.80;99.90;;;;;;4877252;29;20384;-76
2021/11/20 12:35:44;;;;;;;37.60;23.87;;;3.80;99.90;;;;;;4973591;28;20183;-76
2021/11/20 12:38:22;;;;;;;42.47;26.80;;;3.80;99.90;;;;;;4977098;28;20215;-76
2021/11/20 12:40:57;;;;;;;41.97;22.77;;;3.80;99.90;;;;;;4976960;28;20667;-76
2021/11/20 12:44:01;;;;;;;41.43;25.23;;;3.80;99.90;;;;;;4977018;28;20285;-76
2021/11/20 12:47:05;;;;;;;47.50;27.10;;;3.90;99.90;;;;;;4993540;28;20242;-75
2021/11/20 12:49:42;;;;;;;44.77;27.27;;;3.90;99.90;;;;;;4994205;28;20171;-76
2021/11/20 12:52:23;;;;;;;43.63;27.80;;;3.80;99.90;;;;;;4976711;28;20220;-76
2021/11/20 12:55:00;;;;;;;52.60;31.17;;;3.80;99.90;;;;;;4994676;28;20180;-76
2021/11/20 12:57:25;;;;;;;31.73;20.13;;;3.80;99.90;;;;;;4976909;28;20203;-76
2021/11/20 13:00:15;;;;;;;26.23;16.53;;;3.90;99.90;;;;;;4976667;28;20168;-75
2021/11/20 13:02:44;;;;;;;28.80;17.20;;;3.60;99.90;;;;;;4979913;28;20276;-77
2021/11/20 13:05:17;;;;;;;29.23;17.67;;;3.50;99.90;;;;;;4977218;28;20189;-76